Flight Track Log - Related Links

Times and Time Zones

All times are in EDT time to prevent confusion due to time zone crossing. See the AMF1695 flight status page for this flight to view local times or setup timezone preferences in your user account.

Time Position Orientation Groundspeed Altitude Reporting Facility
EDT Latitude Longitude Course Direction KTS MPH feet Rate Location/Type
Fri 09:03:40 PM 40.9892 -98.1711 60° Northeast 165 190 6,300  Level Minneapolis Center
Fri 09:04:42 PM 41.0050 -98.1047 72° East 184 212 7,500 1,306 Climbing Minneapolis Center
Fri 09:05:44 PM 41.0161 -98.0350 78° East 193 222 9,000 774 Climbing Minneapolis Center
Fri 09:06:46 PM 41.0258 -97.9614 80° East 199 229 9,100 48 Climbing Minneapolis Center
Fri 09:07:48 PM 41.0336 -97.8819 83° East 213 245 9,100 -48 Level Minneapolis Center
Fri 09:08:51 PM 41.0419 -97.8044 82° East 214 246 9,000  Descending Minneapolis Center
Fri 09:09:53 PM 41.0536 -97.7144 80° East 208 239 9,100  Climbing Minneapolis Center
Fri 09:10:55 PM 41.0642 -97.6406 79° East 205 236 9,000  Descending Minneapolis Center
Fri 09:11:12 PM 41.0472 -97.6189 136° Southeast 204 235 9,100 207 Climbing Minneapolis Center
Fri 09:11:24 PM 41.0483 -97.5994 86° East 206 237 9,100  Level Minneapolis Center
Fri 09:11:57 PM 41.0731 -97.5642 47° Northeast 207 238 9,100  Level Minneapolis Center
Fri 09:12:25 PM 41.0569 -97.5242 118° Southeast 212 244 9,100 97 Level Minneapolis Center
Fri 09:12:59 PM 41.0808 -97.4875 49° Northeast 210 242 9,200  Climbing Minneapolis Center
Fri 09:13:25 PM 41.0656 -97.4489 118° Southeast 212 244 9,100 -194 Descending Minneapolis Center
Fri 09:14:01 PM 41.0892 -97.4092 52° Northeast 213 245 9,000 -98 Descending Minneapolis Center
Fri 09:14:26 PM 41.0739 -97.3681 116° Southeast 217 250 9,000 -97 Level Minneapolis Center
Fri 09:15:03 PM 41.0969 -97.3189 58° Northeast 216 249 8,900 -98 Descending Minneapolis Center
Fri 09:15:27 PM 41.0819 -97.2844 120° Southeast 219 252 8,900  Level Minneapolis Center
Fri 09:16:05 PM 41.1058 -97.2400 54° Northeast 217 250 8,900 100 Level Minneapolis Center
Fri 09:16:27 PM 41.0944 -97.2086 116° Southeast 214 246 9,000 97 Climbing Minneapolis Center
Fri 09:17:07 PM 41.1194 -97.1656 52° Northeast 211 243 9,000 98 Level Minneapolis Center
Fri 09:17:28 PM 41.1067 -97.1303 116° Southeast 208 239 9,100 97 Climbing Minneapolis Center
Fri 09:18:09 PM 41.1239 -97.0886 61° Northeast 209 241 9,100  Level Minneapolis Center
Fri 09:18:29 PM 41.1067 -97.0528 123° Southeast 216 249 9,100  Level Minneapolis Center
Fri 09:19:11 PM 41.1189 -97.0089 70° East 214 246 9,100  Level Minneapolis Center
Fri 09:19:29 PM 41.1019 -96.9703 120° Southeast 220 253 9,100  Level Minneapolis Center
Fri 09:20:30 PM 41.1017 -96.8903 90° East 217 250 9,100 -49 Level Minneapolis Center
Fri 09:21:31 PM 41.1033 -96.8128 88° East 214 246 9,000 -198 Descending Minneapolis Center
Fri 09:22:31 PM 41.1069 -96.7322 87° East 222 255 8,700 -661 Descending Minneapolis Center
Fri 09:23:20 PM 41.1189 -96.6672 76° East 227 261 7,800 -985 Descending Minneapolis Center
Fri 09:23:38 PM 41.1117 -96.6322 105° East 243 280 7,600 -774 Descending Minneapolis Center
Fri 09:24:22 PM 41.1231 -96.5792 74° East 237 273 7,000 -655 Descending Minneapolis Center
Fri 09:24:33 PM 41.1150 -96.5517 111° Southeast 236 272 7,000  Level Minneapolis Center
Fri 09:25:23 PM 41.1278 -96.4958 73° East 230 265 7,000 100 Level Minneapolis Center
Fri 09:25:33 PM 41.1228 -96.4706 105° East 216 249 7,100 97 Climbing Minneapolis Center
Fri 09:26:25 PM 41.1347 -96.4200 73° East 215 247 7,100  Level Minneapolis Center
Fri 09:26:34 PM 41.1308 -96.3978 103° East 208 239 7,100 -484 Level Minneapolis Center
Fri 09:27:27 PM 41.1461 -96.3269 74° East 213 245 6,600 -590 Descending Minneapolis Center
Fri 09:27:35 PM 41.1425 -96.3192 122° Southeast 220 253 6,500 -484 Descending Minneapolis Center
Fri 09:28:29 PM 41.1617 -96.2492 70° East 216 249 6,100 -455 Descending Minneapolis Center
Fri 09:28:41 PM 41.1619 -96.2283 89° East 218 251 6,000 -608 Descending Minneapolis Center
Fri 09:29:48 PM 41.1819 -96.1458 72° East 220 253 5,300 -649 Descending Minneapolis Center
Fri 09:30:32 PM 41.1917 -96.0911 77° East 222 255 4,800 -984 Descending Minneapolis Center
Fri 09:30:49 PM 41.1911 -96.0617 91° East 232 267 4,300 -677 Descending Minneapolis Center
Fri 09:31:34 PM 41.1967 -96.0075 82° East 228 262 4,100 -400 Descending Minneapolis Center
Fri 09:31:49 PM 41.1897 -95.9789 108° East 221 254 3,900 -97 Descending Minneapolis Center
Fri 09:32:36 PM 41.1856 -95.9144 95° East 219 252 4,000 179 Climbing Minneapolis Center
Fri 09:32:56 PM 41.1842 -95.8908 94° East 206 237 4,100 -290 Climbing Minneapolis Center
Fri 09:33:38 PM 41.1792 -95.8411 98° East 211 243 3,700 -764 Descending Minneapolis Center
Fri 09:33:51 PM 41.1822 -95.8300 70° East 187 215 3,400 -787 Descending Minneapolis Center
Fri 09:34:39 PM 41.2111 -95.8136 23° Northeast 182 209 2,900 -787 Descending Minneapolis Center
Fri 09:34:52 PM 41.2211 -95.8200 334° Northwest 134 154 2,600 -658 Descending Minneapolis Center
Fri 09:35:52 PM 41.2481 -95.8472 323° Northwest 105 121 2,100 -491 Descending Minneapolis Center
Fri 09:36:42 PM 41.2650 -95.8597 331° Northwest 126 145 1,700 -492 Descending Minneapolis Center
Fri 09:36:53 PM 41.2725 -95.8694 316° Northwest 101 116 1,600 -484 Descending Minneapolis Center
Fri 09:37:44 PM 41.2889 -95.8828 329° Northwest 113 130 1,200 -471 Descending Minneapolis Center
Fri 09:39:00 PM 41.3000 -95.8833 323° Northwest  Level FlightAware Approximate

Login

Don't have an account? Register now (free) for customized features, flight alerts, and more!